Time;durP1;ratioP1;P1;durP2;ratioP2;P2;SDS_P1;SDS_P2;PMS_P1;PMS_P2;Temp;Humidity;BMP_temperature;BMP_pressure;BME280_temperature;BME280_humidity;BME280_pressure;Samples;Min_cycle;Max_cycle;Signal;HPM_P1;HPM_P2
2023/08/26 00:00:45;;;;;;;13.25;6.03;;;;;;;;;;5006881;28;20060;-76
2023/08/26 00:03:11;;;;;;;11.32;5.60;;;;;;;;;;5007050;28;20037;-76
2023/08/26 00:05:37;;;;;;;14.48;5.32;;;;;;;;;;5010052;28;20066;-77
2023/08/26 00:08:03;;;;;;;19.00;5.95;;;;;;;;;;5008363;28;20615;-78
2023/08/26 00:10:30;;;;;;;11.48;5.50;;;;;;;;;;5005399;28;20028;-76
2023/08/26 00:12:56;;;;;;;13.98;5.30;;;;;;;;;;5002138;28;20826;-76
2023/08/26 00:15:23;;;;;;;13.90;5.30;;;;;;;;;;5001348;28;20034;-77
2023/08/26 00:17:49;;;;;;;11.35;5.13;;;;;;;;;;5003626;28;20026;-80
2023/08/26 00:20:15;;;;;;;14.50;6.22;;;;;;;;;;4988130;28;20081;-76
2023/08/26 00:22:43;;;;;;;10.82;6.03;;;;;;;;;;4998556;28;20064;-76
2023/08/26 00:25:09;;;;;;;13.07;6.47;;;;;;;;;;4987667;28;20042;-75
2023/08/26 00:27:35;;;;;;;16.30;7.03;;;;;;;;;;4989717;28;20034;-75
2023/08/26 00:30:01;;;;;;;13.63;6.50;;;;;;;;;;4989654;28;20896;-76
2023/08/26 00:32:29;;;;;;;13.23;6.22;;;;;;;;;;4982321;28;20052;-76
2023/08/26 00:34:55;;;;;;;15.43;6.05;;;;;;;;;;4986923;28;20117;-77
2023/08/26 00:37:21;;;;;;;14.20;6.63;;;;;;;;;;4987092;28;20034;-76
2023/08/26 00:39:47;;;;;;;9.45;6.03;;;;;;;;;;4966288;28;20030;-76
2023/08/26 00:42:13;;;;;;;15.02;6.40;;;;;;;;;;5003728;28;20076;-76
2023/08/26 00:44:39;;;;;;;12.55;6.15;;;;;;;;;;4995546;28;20022;-76
2023/08/26 00:47:07;;;;;;;17.55;6.63;;;;;;;;;;5009288;28;20029;-76
2023/08/26 00:49:33;;;;;;;8.27;5.88;;;;;;;;;;4977834;28;20033;-75
2023/08/26 00:51:59;;;;;;;18.90;6.30;;;;;;;;;;4973202;28;20033;-76
2023/08/26 00:54:27;;;;;;;10.90;5.82;;;;;;;;;;4971806;28;20054;-76
2023/08/26 00:56:54;;;;;;;16.02;6.20;;;;;;;;;;4992737;28;20034;-75
2023/08/26 00:59:20;;;;;;;13.48;6.13;;;;;;;;;;4992760;28;20180;-76
2023/08/26 01:01:47;;;;;;;13.20;6.95;;;;;;;;;;4992521;28;20041;-75
2023/08/26 01:04:13;;;;;;;13.45;6.55;;;;;;;;;;4990081;28;20038;-75
2023/08/26 01:06:39;;;;;;;18.60;6.20;;;;;;;;;;4989697;28;20290;-76
2023/08/26 01:09:06;;;;;;;12.52;6.90;;;;;;;;;;4973195;28;20114;-76
2023/08/26 01:11:35;;;;;;;12.05;7.00;;;;;;;;;;5004546;28;20026;-77
2023/08/26 01:14:01;;;;;;;13.45;7.05;;;;;;;;;;4989846;28;20038;-76
2023/08/26 01:16:28;;;;;;;17.70;7.57;;;;;;;;;;4990533;28;20029;-75
2023/08/26 01:18:56;;;;;;;12.23;7.43;;;;;;;;;;5006184;28;20045;-75
2023/08/26 01:21:23;;;;;;;18.40;7.80;;;;;;;;;;4984646;28;20029;-76
2023/08/26 01:23:50;;;;;;;14.63;8.75;;;;;;;;;;4995856;28;20026;-76
2023/08/26 01:26:16;;;;;;;22.70;9.55;;;;;;;;;;5009330;28;20025;-79
2023/08/26 01:28:42;;;;;;;28.23;9.60;;;;;;;;;;4992982;28;20037;-76
2023/08/26 01:31:10;;;;;;;18.95;9.88;;;;;;;;;;4979276;28;20030;-76
2023/08/26 01:33:51;;;;;;;15.68;9.30;;;;;;;;;;4990097;28;20400;-76
2023/08/26 01:36:17;;;;;;;;;;;;;;;;;;4991900;28;20116;-77
2023/08/26 01:38:45;;;;;;;18.55;10.20;;;;;;;;;;4990385;28;19920;-76
2023/08/26 01:41:12;;;;;;;18.45;10.07;;;;;;;;;;4990782;28;20025;-75
2023/08/26 01:43:38;;;;;;;16.15;9.15;;;;;;;;;;4986633;28;20030;-75
2023/08/26 01:46:05;;;;;;;26.50;9.73;;;;;;;;;;4990635;28;20030;-76
2023/08/26 01:48:32;;;;;;;19.83;8.65;;;;;;;;;;5002340;28;20179;-76
2023/08/26 01:50:58;;;;;;;18.45;8.98;;;;;;;;;;4975119;28;20032;-76
2023/08/26 01:53:24;;;;;;;15.35;8.57;;;;;;;;;;5003106;28;20149;-76
2023/08/26 01:55:50;;;;;;;13.45;7.43;;;;;;;;;;5005324;28;20046;-77
2023/08/26 01:58:17;;;;;;;24.40;7.28;;;;;;;;;;4990894;28;20042;-75
2023/08/26 02:00:43;;;;;;;15.98;7.30;;;;;;;;;;4992191;28;20192;-76
2023/08/26 02:03:09;;;;;;;16.42;6.95;;;;;;;;;;4975166;28;20025;-76
2023/08/26 02:05:35;;;;;;;19.65;6.93;;;;;;;;;;4989534;28;20454;-75
2023/08/26 02:08:02;;;;;;;21.92;7.82;;;;;;;;;;4992287;28;20460;-75
2023/08/26 02:10:28;;;;;;;12.07;6.50;;;;;;;;;;4993330;28;20022;-75
2023/08/26 02:12:55;;;;;;;15.80;6.97;;;;;;;;;;5002791;28;20065;-76
2023/08/26 02:15:21;;;;;;;14.23;6.95;;;;;;;;;;4989797;28;20061;-75
2023/08/26 02:17:47;;;;;;;29.00;10.02;;;;;;;;;;5006151;28;20043;-77
2023/08/26 02:20:13;;;;;;;20.85;8.52;;;;;;;;;;5006287;28;20124;-75
2023/08/26 02:22:40;;;;;;;16.90;8.57;;;;;;;;;;5007279;28;20030;-75
2023/08/26 02:25:07;;;;;;;20.35;9.13;;;;;;;;;;5004300;28;20088;-75
2023/08/26 02:27:34;;;;;;;23.88;9.65;;;;;;;;;;4991197;28;20034;-76
2023/08/26 02:30:00;;;;;;;18.52;8.40;;;;;;;;;;5004072;28;20030;-75
2023/08/26 02:32:26;;;;;;;17.40;8.43;;;;;;;;;;4987440;28;20033;-76
2023/08/26 02:34:52;;;;;;;18.77;7.68;;;;;;;;;;4982559;28;20125;-77
2023/08/26 02:37:18;;;;;;;17.88;7.57;;;;;;;;;;4973941;28;20053;-74
2023/08/26 02:39:45;;;;;;;17.45;7.72;;;;;;;;;;5003331;28;20049;-77
2023/08/26 02:42:11;;;;;;;20.33;8.27;;;;;;;;;;5005219;28;20033;-77
2023/08/26 02:44:38;;;;;;;16.83;7.03;;;;;;;;;;4994488;28;20034;-78
2023/08/26 02:47:04;;;;;;;21.02;7.65;;;;;;;;;;4991990;28;20030;-75
2023/08/26 02:49:30;;;;;;;16.35;8.02;;;;;;;;;;4996947;28;20122;-76
2023/08/26 02:51:56;;;;;;;19.00;9.15;;;;;;;;;;4991120;28;20092;-75
2023/08/26 02:54:23;;;;;;;17.13;9.18;;;;;;;;;;4989709;28;20384;-76
2023/08/26 02:56:51;;;;;;;20.88;9.52;;;;;;;;;;4990279;28;20736;-76
2023/08/26 02:59:17;;;;;;;16.38;9.32;;;;;;;;;;5004605;28;20061;-74
2023/08/26 03:01:44;;;;;;;25.65;10.20;;;;;;;;;;5006455;28;20073;-77
2023/08/26 03:04:10;;;;;;;20.98;9.75;;;;;;;;;;4970719;28;20053;-76
2023/08/26 03:06:37;;;;;;;33.42;11.35;;;;;;;;;;4989067;28;20065;-76
2023/08/26 03:09:03;;;;;;;23.73;10.10;;;;;;;;;;4988365;28;20065;-74
2023/08/26 03:11:30;;;;;;;20.65;9.23;;;;;;;;;;5001160;28;20033;-76
2023/08/26 03:13:56;;;;;;;24.40;9.90;;;;;;;;;;4988725;28;20065;-75
2023/08/26 03:16:22;;;;;;;19.73;9.82;;;;;;;;;;4986252;28;20084;-75
2023/08/26 03:18:48;;;;;;;20.92;8.95;;;;;;;;;;4986845;28;20040;-76
2023/08/26 03:21:14;;;;;;;18.38;9.40;;;;;;;;;;4989635;28;20034;-76
2023/08/26 03:23:41;;;;;;;20.50;8.82;;;;;;;;;;4992094;28;20045;-77
2023/08/26 03:26:07;;;;;;;23.35;9.23;;;;;;;;;;4992453;28;20774;-75
2023/08/26 03:28:34;;;;;;;20.10;8.75;;;;;;;;;;5006677;28;20048;-75
2023/08/26 03:31:05;;;;;;;20.23;8.90;;;;;;;;;;5010647;28;20026;-76
2023/08/26 03:33:36;;;;;;;23.83;9.18;;;;;;;;;;4989055;28;20499;-75
2023/08/26 03:36:03;;;;;;;21.63;10.32;;;;;;;;;;5002782;28;20034;-76
2023/08/26 03:38:29;;;;;;;19.55;9.77;;;;;;;;;;5003291;28;20069;-76
2023/08/26 03:40:56;;;;;;;22.67;10.02;;;;;;;;;;5004627;28;20076;-76
2023/08/26 03:43:22;;;;;;;19.30;9.52;;;;;;;;;;5002166;28;20182;-75
2023/08/26 03:45:48;;;;;;;21.20;10.32;;;;;;;;;;4990911;28;20117;-77
2023/08/26 03:48:15;;;;;;;27.17;11.02;;;;;;;;;;5005492;28;20050;-76
2023/08/26 03:50:51;;;;;;;22.38;11.05;;;;;;;;;;4983609;28;20031;-73
2023/08/26 03:53:17;;;;;;;21.50;11.40;;;;;;;;;;5000562;28;20034;-74
2023/08/26 03:55:44;;;;;;;25.05;12.18;;;;;;;;;;5002348;28;20132;-77
2023/08/26 03:58:10;;;;;;;26.58;11.60;;;;;;;;;;4969887;28;20068;-75
2023/08/26 04:00:37;;;;;;;20.77;11.32;;;;;;;;;;5006498;28;20041;-75
2023/08/26 04:03:10;;;;;;;30.67;13.80;;;;;;;;;;5006308;28;20038;-75
2023/08/26 04:05:37;;;;;;;24.65;12.52;;;;;;;;;;4993342;28;20157;-77
2023/08/26 04:08:04;;;;;;;20.63;11.52;;;;;;;;;;5010935;28;20084;-74
2023/08/26 04:10:30;;;;;;;32.53;12.00;;;;;;;;;;4992908;28;20040;-76
2023/08/26 04:13:16;;;;;;;21.88;12.23;;;;;;;;;;4990577;28;20504;-77
2023/08/26 04:15:42;;;;;;;20.77;11.98;;;;;;;;;;5010163;28;20030;-76
2023/08/26 04:18:10;;;;;;;24.92;11.57;;;;;;;;;;5006729;28;20038;-75
2023/08/26 04:20:37;;;;;;;28.90;11.75;;;;;;;;;;4989781;28;20435;-75
2023/08/26 04:23:03;;;;;;;20.65;10.85;;;;;;;;;;4985321;28;20109;-76
2023/08/26 04:25:29;;;;;;;27.17;11.02;;;;;;;;;;5006197;28;20029;-76
2023/08/26 04:27:56;;;;;;;19.33;10.02;;;;;;;;;;4987774;28;20030;-76
2023/08/26 04:30:22;;;;;;;21.25;10.98;;;;;;;;;;4987350;28;20499;-76
2023/08/26 04:32:48;;;;;;;20.38;10.52;;;;;;;;;;5008139;28;20034;-76
2023/08/26 04:35:16;;;;;;;23.95;10.32;;;;;;;;;;5010116;28;20042;-75
2023/08/26 04:37:42;;;;;;;25.50;9.93;;;;;;;;;;4990777;28;20030;-76
2023/08/26 04:40:14;;;;;;;23.17;10.95;;;;;;;;;;4991975;28;20030;-76
2023/08/26 04:42:41;;;;;;;22.20;9.98;;;;;;;;;;5007517;28;20053;-76
2023/08/26 04:45:07;;;;;;;20.23;9.55;;;;;;;;;;4994089;28;20026;-76
2023/08/26 04:47:34;;;;;;;20.48;9.13;;;;;;;;;;4995902;28;20025;-76
2023/08/26 04:50:01;;;;;;;31.17;10.80;;;;;;;;;;5008986;28;20022;-76
2023/08/26 04:52:27;;;;;;;23.02;9.30;;;;;;;;;;4995127;28;20038;-76
2023/08/26 04:54:53;;;;;;;16.05;9.30;;;;;;;;;;4979146;28;20093;-77
2023/08/26 04:57:19;;;;;;;24.73;9.75;;;;;;;;;;5010625;28;20438;-76
2023/08/26 04:59:45;;;;;;;22.10;8.48;;;;;;;;;;4994563;28;20141;-76
2023/08/26 05:02:12;;;;;;;17.20;8.27;;;;;;;;;;5008512;28;20128;-76
2023/08/26 05:04:38;;;;;;;23.30;8.45;;;;;;;;;;5006018;28;20103;-77
2023/08/26 05:07:04;;;;;;;15.30;9.10;;;;;;;;;;5006752;28;20026;-75
2023/08/26 05:09:31;;;;;;;18.63;8.95;;;;;;;;;;5006032;28;20060;-76
2023/08/26 05:11:57;;;;;;;17.35;9.20;;;;;;;;;;4982168;28;20087;-75
2023/08/26 05:14:26;;;;;;;19.77;8.82;;;;;;;;;;4993204;28;20030;-77
2023/08/26 05:16:52;;;;;;;16.02;8.90;;;;;;;;;;4975853;28;20318;-77
2023/08/26 05:19:19;;;;;;;18.85;10.23;;;;;;;;;;4994711;28;20053;-77
2023/08/26 05:21:45;;;;;;;20.17;10.18;;;;;;;;;;4991282;28;20526;-76
2023/08/26 05:24:11;;;;;;;21.15;10.40;;;;;;;;;;5005977;28;20022;-77
2023/08/26 05:26:37;;;;;;;20.10;9.63;;;;;;;;;;4985723;28;20030;-77
2023/08/26 05:29:06;;;;;;;21.75;10.00;;;;;;;;;;4993646;28;20040;-77
2023/08/26 05:31:33;;;;;;;25.70;10.38;;;;;;;;;;4996917;28;20475;-80
2023/08/26 05:33:59;;;;;;;22.33;9.57;;;;;;;;;;5000125;28;20052;-77
2023/08/26 05:36:26;;;;;;;25.58;9.77;;;;;;;;;;4994905;28;20080;-77
2023/08/26 05:38:53;;;;;;;21.27;8.27;;;;;;;;;;5010903;28;20021;-75
2023/08/26 05:41:19;;;;;;;19.98;7.70;;;;;;;;;;5000014;28;20030;-76
2023/08/26 05:43:45;;;;;;;19.13;7.97;;;;;;;;;;4991156;28;20109;-76
2023/08/26 05:46:12;;;;;;;18.35;7.53;;;;;;;;;;4989437;28;20129;-75
2023/08/26 05:48:39;;;;;;;15.52;7.00;;;;;;;;;;5005525;28;20372;-76
2023/08/26 05:51:07;;;;;;;12.93;6.43;;;;;;;;;;5003997;28;20026;-76
2023/08/26 05:53:33;;;;;;;15.95;6.20;;;;;;;;;;4990850;28;20065;-76
2023/08/26 05:56:00;;;;;;;14.40;6.55;;;;;;;;;;4988689;28;20041;-75
2023/08/26 05:58:26;;;;;;;15.13;5.97;;;;;;;;;;5003028;28;20066;-75
2023/08/26 06:00:52;;;;;;;12.80;5.80;;;;;;;;;;4988728;28;20118;-76
2023/08/26 06:03:18;;;;;;;16.77;5.70;;;;;;;;;;4990983;28;20454;-75
2023/08/26 06:05:46;;;;;;;18.80;6.22;;;;;;;;;;4991788;28;20037;-76
2023/08/26 06:08:13;;;;;;;18.65;5.90;;;;;;;;;;4990671;28;20038;-77
2023/08/26 06:10:39;;;;;;;15.98;5.82;;;;;;;;;;4970668;28;20571;-79
2023/08/26 06:13:06;;;;;;;13.50;5.35;;;;;;;;;;4994813;28;20034;-75
2023/08/26 06:15:32;;;;;;;15.25;5.35;;;;;;;;;;4996462;28;20036;-76
2023/08/26 06:17:59;;;;;;;12.23;5.30;;;;;;;;;;4998168;28;20084;-76
2023/08/26 06:20:27;;;;;;;14.55;5.32;;;;;;;;;;5016050;28;20364;-76
2023/08/26 06:22:53;;;;;;;15.73;6.75;;;;;;;;;;5003992;28;20091;-75
2023/08/26 06:25:20;;;;;;;14.88;6.13;;;;;;;;;;5005827;28;20030;-77
2023/08/26 06:27:47;;;;;;;8.85;5.00;;;;;;;;;;5006695;28;20030;-77
2023/08/26 06:30:13;;;;;;;15.90;4.88;;;;;;;;;;4992497;28;20034;-75
2023/08/26 06:32:39;;;;;;;9.30;4.97;;;;;;;;;;4991547;28;20033;-76
2023/08/26 06:35:06;;;;;;;16.15;5.60;;;;;;;;;;4989405;28;20041;-75
2023/08/26 06:37:33;;;;;;;13.02;5.43;;;;;;;;;;4989688;28;20041;-74
2023/08/26 06:39:59;;;;;;;17.75;5.50;;;;;;;;;;4992925;28;20164;-74
2023/08/26 06:42:25;;;;;;;13.73;5.60;;;;;;;;;;5005541;28;20022;-75
2023/08/26 06:44:54;;;;;;;12.15;5.70;;;;;;;;;;4997876;28;20541;-75
2023/08/26 06:47:21;;;;;;;10.35;5.32;;;;;;;;;;4987423;28;20026;-76
2023/08/26 06:49:48;;;;;;;19.30;6.53;;;;;;;;;;4993761;28;20099;-75
2023/08/26 06:52:15;;;;;;;12.43;6.03;;;;;;;;;;5007424;28;20054;-75
2023/08/26 06:54:41;;;;;;;16.05;6.45;;;;;;;;;;4990921;28;20113;-75
2023/08/26 06:57:07;;;;;;;14.68;6.32;;;;;;;;;;4994445;28;20037;-74
2023/08/26 06:59:33;;;;;;;12.70;7.07;;;;;;;;;;4989655;28;20046;-77
2023/08/26 07:02:01;;;;;;;20.17;6.25;;;;;;;;;;4987904;28;20080;-83
2023/08/26 07:04:27;;;;;;;20.17;6.72;;;;;;;;;;4989129;28;20038;-74
2023/08/26 07:06:53;;;;;;;12.57;6.45;;;;;;;;;;4987344;28;20034;-74
2023/08/26 07:09:19;;;;;;;13.95;6.45;;;;;;;;;;5001019;28;20019;-76
2023/08/26 07:11:45;;;;;;;13.18;6.07;;;;;;;;;;4985523;28;20065;-75
2023/08/26 07:14:11;;;;;;;18.75;6.32;;;;;;;;;;4985460;28;20030;-75
2023/08/26 07:16:37;;;;;;;18.17;7.13;;;;;;;;;;4987420;28;20324;-74
2023/08/26 07:19:06;;;;;;;20.20;7.93;;;;;;;;;;4987691;28;20034;-75
2023/08/26 07:21:32;;;;;;;19.52;7.18;;;;;;;;;;5001820;28;20511;-75
2023/08/26 07:23:58;;;;;;;15.95;7.00;;;;;;;;;;4986444;28;20069;-74
2023/08/26 07:26:24;;;;;;;17.75;7.20;;;;;;;;;;4987547;28;20026;-74
2023/08/26 07:28:51;;;;;;;12.15;6.43;;;;;;;;;;4985953;28;20160;-75
2023/08/26 07:31:17;;;;;;;16.40;6.85;;;;;;;;;;4982796;28;20050;-75
2023/08/26 07:33:43;;;;;;;13.90;6.97;;;;;;;;;;4987720;28;20034;-75
2023/08/26 07:36:10;;;;;;;17.67;6.90;;;;;;;;;;4988264;28;20158;-75
2023/08/26 07:38:39;;;;;;;12.15;5.93;;;;;;;;;;4986872;28;20752;-75
2023/08/26 07:41:06;;;;;;;12.57;6.70;;;;;;;;;;4990426;28;20076;-75
2023/08/26 07:43:33;;;;;;;11.90;6.07;;;;;;;;;;4989813;28;20038;-76
2023/08/26 07:45:59;;;;;;;13.18;6.68;;;;;;;;;;5004043;28;20034;-75
2023/08/26 07:48:26;;;;;;;18.67;7.43;;;;;;;;;;4989419;28;20057;-77
2023/08/26 07:50:52;;;;;;;14.40;6.93;;;;;;;;;;4992236;28;20511;-75
2023/08/26 07:53:18;;;;;;;17.00;7.40;;;;;;;;;;4991244;28;20045;-74
2023/08/26 07:55:44;;;;;;;16.13;6.68;;;;;;;;;;4990157;28;20027;-73
2023/08/26 07:58:10;;;;;;;17.75;6.70;;;;;;;;;;4988100;28;20125;-74
2023/08/26 08:00:36;;;;;;;14.10;5.82;;;;;;;;;;4990809;28;20534;-75
2023/08/26 08:03:03;;;;;;;15.40;5.90;;;;;;;;;;5007765;28;20034;-74
2023/08/26 08:05:29;;;;;;;10.98;5.57;;;;;;;;;;4991217;28;20033;-74
2023/08/26 08:07:55;;;;;;;15.93;5.35;;;;;;;;;;5010349;28;20117;-74
2023/08/26 08:10:21;;;;;;;10.55;4.57;;;;;;;;;;5011307;28;20076;-74
2023/08/26 08:12:47;;;;;;;8.77;3.67;;;;;;;;;;5012128;28;20044;-74
2023/08/26 08:15:13;;;;;;;9.27;2.80;;;;;;;;;;5006528;28;20042;-74
2023/08/26 08:17:40;;;;;;;7.05;2.95;;;;;;;;;;5008268;28;20034;-75
2023/08/26 08:20:06;;;;;;;6.22;2.75;;;;;;;;;;4995091;28;20038;-75
2023/08/26 08:22:36;;;;;;;7.25;2.05;;;;;;;;;;5011807;28;20569;-75
2023/08/26 08:25:04;;;;;;;4.32;2.30;;;;;;;;;;5011463;28;20055;-76
2023/08/26 08:27:30;;;;;;;9.90;3.10;;;;;;;;;;5010981;28;20058;-75
2023/08/26 08:29:57;;;;;;;4.90;2.47;;;;;;;;;;5006099;28;20041;-75
2023/08/26 08:32:23;;;;;;;8.40;2.78;;;;;;;;;;4994118;28;20100;-76
2023/08/26 08:34:50;;;;;;;8.80;2.80;;;;;;;;;;5012419;28;20037;-75
2023/08/26 08:37:16;;;;;;;6.18;2.78;;;;;;;;;;5013671;28;20030;-74
2023/08/26 08:39:42;;;;;;;8.50;3.28;;;;;;;;;;5013863;28;20097;-77
2023/08/26 08:42:14;;;;;;;9.52;3.30;;;;;;;;;;5013869;28;20033;-73
2023/08/26 08:44:42;;;;;;;12.82;3.20;;;;;;;;;;5013613;28;20391;-75
2023/08/26 08:47:09;;;;;;;9.30;3.08;;;;;;;;;;5012930;28;20117;-76
2023/08/26 08:49:36;;;;;;;5.70;2.75;;;;;;;;;;4995984;28;20066;-76
2023/08/26 08:52:05;;;;;;;7.18;2.83;;;;;;;;;;4994772;28;20029;-75
2023/08/26 08:54:33;;;;;;;9.77;3.17;;;;;;;;;;4979008;28;20033;-75
2023/08/26 08:56:59;;;;;;;11.05;3.70;;;;;;;;;;5012332;28;20030;-73
2023/08/26 08:59:26;;;;;;;6.97;3.28;;;;;;;;;;4994677;28;20066;-76
2023/08/26 09:01:58;;;;;;;6.22;2.67;;;;;;;;;;4995095;28;20443;-76
2023/08/26 09:04:28;;;;;;;5.82;2.72;;;;;;;;;;5011998;28;20061;-76
2023/08/26 09:06:54;;;;;;;7.22;3.40;;;;;;;;;;5011031;28;20468;-76
2023/08/26 09:09:21;;;;;;;5.97;2.97;;;;;;;;;;5012532;28;20053;-76
2023/08/26 09:11:48;;;;;;;5.53;2.72;;;;;;;;;;5012110;28;20045;-76
2023/08/26 09:14:14;;;;;;;4.57;2.70;;;;;;;;;;4983177;28;20476;-77
2023/08/26 09:16:41;;;;;;;7.28;2.65;;;;;;;;;;4993149;28;20459;-75
2023/08/26 09:19:08;;;;;;;6.88;2.80;;;;;;;;;;4992352;28;20038;-75
2023/08/26 09:21:34;;;;;;;6.93;3.03;;;;;;;;;;5002810;28;20120;-75
2023/08/26 09:24:00;;;;;;;6.25;2.88;;;;;;;;;;5013268;28;20033;-75
2023/08/26 09:26:27;;;;;;;9.63;3.53;;;;;;;;;;4995330;28;20040;-75
2023/08/26 09:28:53;;;;;;;7.43;3.42;;;;;;;;;;5007878;28;20038;-77
2023/08/26 09:31:20;;;;;;;5.63;3.05;;;;;;;;;;5009255;28;20479;-74
2023/08/26 09:34:03;;;;;;;5.43;2.78;;;;;;;;;;4990551;28;20073;-75
2023/08/26 09:36:41;;;;;;;6.95;3.47;;;;;;;;;;4993977;28;20036;-76
2023/08/26 09:39:15;;;;;;;5.55;3.53;;;;;;;;;;5006915;28;20534;-75
2023/08/26 09:41:45;;;;;;;8.75;3.40;;;;;;;;;;5010898;28;20041;-76
2023/08/26 09:44:12;;;;;;;12.55;4.30;;;;;;;;;;5009523;28;20033;-75
2023/08/26 09:46:39;;;;;;;8.88;4.50;;;;;;;;;;5010479;28;20042;-74
2023/08/26 09:49:06;;;;;;;10.10;3.35;;;;;;;;;;5006515;28;20065;-75
2023/08/26 09:51:32;;;;;;;7.82;3.10;;;;;;;;;;5009406;28;20148;-75
2023/08/26 09:53:59;;;;;;;11.68;3.72;;;;;;;;;;5008148;28;20550;-75
2023/08/26 09:56:26;;;;;;;10.07;4.10;;;;;;;;;;4986042;28;20101;-75
2023/08/26 09:58:57;;;;;;;4.97;4.05;;;;;;;;;;4989441;28;20038;-74
2023/08/26 10:01:24;;;;;;;4.55;2.97;;;;;;;;;;5010977;28;20050;-74
2023/08/26 10:03:57;;;;;;;5.28;3.05;;;;;;;;;;5010153;28;20057;-75
2023/08/26 10:06:24;;;;;;;5.18;3.08;;;;;;;;;;5002907;28;20044;-75
2023/08/26 10:08:55;;;;;;;6.38;2.88;;;;;;;;;;5011971;28;20137;-75
2023/08/26 10:11:22;;;;;;;5.28;2.97;;;;;;;;;;5013550;28;20038;-75
2023/08/26 10:13:54;;;;;;;5.07;2.50;;;;;;;;;;5008554;28;20030;-75
2023/08/26 10:16:23;;;;;;;6.53;2.90;;;;;;;;;;4990428;28;20442;-75
2023/08/26 10:18:52;;;;;;;7.95;3.13;;;;;;;;;;5006313;28;20030;-75
2023/08/26 10:21:18;;;;;;;7.30;2.53;;;;;;;;;;5009209;28;20060;-75
2023/08/26 10:23:44;;;;;;;4.93;2.70;;;;;;;;;;5010023;28;20032;-76
2023/08/26 10:26:10;;;;;;;8.80;2.78;;;;;;;;;;5010885;28;20052;-76
2023/08/26 10:28:37;;;;;;;4.90;2.47;;;;;;;;;;5008951;28;20030;-76
2023/08/26 10:31:07;;;;;;;6.20;2.80;;;;;;;;;;5010101;28;20117;-74
2023/08/26 10:33:53;;;;;;;14.40;5.88;;;;;;;;;;4993672;28;20022;-76
2023/08/26 10:36:20;;;;;;;10.88;3.45;;;;;;;;;;5006476;28;20091;-77
2023/08/26 10:38:59;;;;;;;10.20;3.40;;;;;;;;;;5002336;28;20073;-77
2023/08/26 10:41:26;;;;;;;5.10;2.80;;;;;;;;;;5009923;28;20138;-76
2023/08/26 10:43:53;;;;;;;7.10;2.63;;;;;;;;;;5011025;28;20476;-76
2023/08/26 10:46:31;;;;;;;4.55;2.58;;;;;;;;;;4993473;28;20034;-77
2023/08/26 10:49:01;;;;;;;6.32;2.50;;;;;;;;;;4995691;28;20026;-77
2023/08/26 10:51:27;;;;;;;6.35;2.50;;;;;;;;;;5010369;28;20464;-76
2023/08/26 10:54:01;;;;;;;7.50;2.58;;;;;;;;;;5011273;28;20554;-77
2023/08/26 10:56:28;;;;;;;9.18;2.90;;;;;;;;;;5010639;28;20030;-77
2023/08/26 10:59:00;;;;;;;9.48;2.83;;;;;;;;;;4990860;28;20037;-76
2023/08/26 11:01:26;;;;;;;6.68;2.15;;;;;;;;;;5007204;28;20149;-76
2023/08/26 11:03:53;;;;;;;5.57;2.63;;;;;;;;;;5008388;28;20032;-76
2023/08/26 11:06:23;;;;;;;10.88;2.50;;;;;;;;;;4990333;28;20030;-75
2023/08/26 11:08:53;;;;;;;4.72;2.33;;;;;;;;;;5008958;28;20510;-76
2023/08/26 11:11:20;;;;;;;7.25;3.08;;;;;;;;;;5008536;28;20399;-77
2023/08/26 11:13:47;;;;;;;6.25;2.90;;;;;;;;;;4985573;28;20042;-78
2023/08/26 11:16:14;;;;;;;6.75;3.20;;;;;;;;;;4990177;28;20038;-77
2023/08/26 11:18:40;;;;;;;6.95;3.33;;;;;;;;;;5004452;28;20026;-75
2023/08/26 11:21:07;;;;;;;11.07;3.50;;;;;;;;;;4990052;28;20081;-77
2023/08/26 11:23:33;;;;;;;8.70;3.50;;;;;;;;;;4992551;28;20076;-76
2023/08/26 11:25:59;;;;;;;7.90;3.03;;;;;;;;;;5002813;28;20040;-77
2023/08/26 11:28:28;;;;;;;6.18;2.70;;;;;;;;;;5009412;28;20046;-76
2023/08/26 11:30:55;;;;;;;7.32;3.55;;;;;;;;;;5007002;28;20041;-78
2023/08/26 11:33:21;;;;;;;7.53;2.40;;;;;;;;;;5004998;28;20029;-77
2023/08/26 11:35:48;;;;;;;7.47;2.70;;;;;;;;;;4988929;28;20040;-76
2023/08/26 11:38:16;;;;;;;6.80;2.90;;;;;;;;;;4982641;28;20049;-78
2023/08/26 11:40:42;;;;;;;6.45;2.78;;;;;;;;;;4989116;28;20419;-75
2023/08/26 11:43:09;;;;;;;5.10;2.28;;;;;;;;;;4987614;28;20030;-76
2023/08/26 11:45:36;;;;;;;7.05;2.20;;;;;;;;;;5005099;28;20097;-75
2023/08/26 11:48:03;;;;;;;5.95;2.25;;;;;;;;;;5004348;28;20550;-76
2023/08/26 11:50:29;;;;;;;5.78;1.73;;;;;;;;;;5003970;28;20096;-76
2023/08/26 11:52:55;;;;;;;4.78;1.77;;;;;;;;;;5003283;28;20033;-76
2023/08/26 11:55:22;;;;;;;8.57;2.10;;;;;;;;;;4989528;28;20156;-76
2023/08/26 11:57:52;;;;;;;6.97;2.03;;;;;;;;;;4973099;28;20058;-77
2023/08/26 12:00:18;;;;;;;5.28;1.85;;;;;;;;;;5006874;28;20073;-76
2023/08/26 12:02:48;;;;;;;12.60;2.22;;;;;;;;;;5005820;28;20121;-76
2023/08/26 12:05:16;;;;;;;5.53;2.50;;;;;;;;;;4984800;28;20070;-76
2023/08/26 12:07:45;;;;;;;4.72;2.50;;;;;;;;;;4998342;28;20066;-77
2023/08/26 12:10:12;;;;;;;3.90;2.40;;;;;;;;;;4994261;28;20041;-76
2023/08/26 12:12:39;;;;;;;2.97;1.80;;;;;;;;;;5002286;28;20041;-77
2023/08/26 12:15:06;;;;;;;3.25;1.30;;;;;;;;;;4990717;28;20118;-77
2023/08/26 12:17:32;;;;;;;3.80;1.40;;;;;;;;;;4988099;28;20053;-77
2023/08/26 12:19:58;;;;;;;4.63;1.75;;;;;;;;;;4999727;28;20069;-77
2023/08/26 12:22:24;;;;;;;4.60;1.50;;;;;;;;;;4999855;28;20356;-76
2023/08/26 12:24:50;;;;;;;6.22;1.90;;;;;;;;;;5004053;28;20137;-77
2023/08/26 12:27:17;;;;;;;4.20;1.88;;;;;;;;;;4998974;28;20089;-77
2023/08/26 12:29:43;;;;;;;4.78;2.28;;;;;;;;;;4989706;28;20018;-76
2023/08/26 12:32:09;;;;;;;4.38;1.92;;;;;;;;;;4986382;28;20030;-76
2023/08/26 12:34:35;;;;;;;4.28;1.90;;;;;;;;;;4989769;28;20041;-76
2023/08/26 12:37:01;;;;;;;4.38;1.90;;;;;;;;;;5003236;28;20099;-75
2023/08/26 12:39:27;;;;;;;7.88;2.47;;;;;;;;;;5005680;28;20129;-75
2023/08/26 12:41:54;;;;;;;7.18;2.22;;;;;;;;;;5004540;28;20042;-75
2023/08/26 12:44:21;;;;;;;4.93;2.03;;;;;;;;;;4985804;28;20044;-75
2023/08/26 12:46:48;;;;;;;11.15;2.33;;;;;;;;;;5004313;28;20022;-80
2023/08/26 12:49:14;;;;;;;19.13;4.97;;;;;;;;;;5007026;28;20121;-76
2023/08/26 12:51:41;;;;;;;22.27;4.68;;;;;;;;;;5011082;28;20026;-76
2023/08/26 12:54:07;;;;;;;25.30;3.67;;;;;;;;;;5004697;28;20033;-81
2023/08/26 12:56:33;;;;;;;24.20;4.88;;;;;;;;;;5017192;28;21321;-76
2023/08/26 12:58:59;;;;;;;21.38;6.00;;;;;;;;;;5014884;28;20037;-75
2023/08/26 13:01:26;;;;;;;22.17;5.97;;;;;;;;;;5010310;28;20168;-78
2023/08/26 13:03:52;;;;;;;11.88;6.28;;;;;;;;;;5010103;28;20030;-80
2023/08/26 13:06:18;;;;;;;16.10;5.07;;;;;;;;;;5009563;28;20117;-77
2023/08/26 13:08:44;;;;;;;9.23;4.72;;;;;;;;;;5011008;28;20089;-78
2023/08/26 13:11:10;;;;;;;15.77;9.30;;;;;;;;;;5002422;28;20071;-78
2023/08/26 13:13:37;;;;;;;14.48;7.95;;;;;;;;;;5008692;28;20120;-78
2023/08/26 13:16:03;;;;;;;10.05;7.72;;;;;;;;;;5010478;28;20038;-79
2023/08/26 13:18:31;;;;;;;10.00;4.88;;;;;;;;;;4988484;28;20038;-77
2023/08/26 13:20:57;;;;;;;6.85;4.22;;;;;;;;;;5009108;28;20046;-78
2023/08/26 13:23:23;;;;;;;6.05;2.88;;;;;;;;;;5010365;28;20113;-78
2023/08/26 13:25:50;;;;;;;8.27;2.53;;;;;;;;;;5006854;28;20026;-77
2023/08/26 13:28:16;;;;;;;7.43;2.00;;;;;;;;;;4989869;28;20048;-78
2023/08/26 13:30:42;;;;;;;5.80;1.80;;;;;;;;;;4976330;28;20034;-79
2023/08/26 13:33:08;;;;;;;4.75;2.10;;;;;;;;;;5007091;28;20096;-77
2023/08/26 13:35:34;;;;;;;4.32;2.33;;;;;;;;;;5010233;28;20042;-80
2023/08/26 13:38:00;;;;;;;4.65;2.80;;;;;;;;;;4991321;28;20103;-81
2023/08/26 13:40:26;;;;;;;8.00;3.47;;;;;;;;;;4995853;28;20042;-80
2023/08/26 13:42:54;;;;;;;5.65;3.03;;;;;;;;;;5010512;28;20034;-78
2023/08/26 13:45:21;;;;;;;6.68;3.20;;;;;;;;;;4993935;28;20046;-77
2023/08/26 13:47:47;;;;;;;5.10;3.00;;;;;;;;;;5007626;28;20391;-77
2023/08/26 13:50:13;;;;;;;8.05;3.70;;;;;;;;;;5009564;28;20533;-77
2023/08/26 13:52:39;;;;;;;9.88;3.85;;;;;;;;;;4984755;28;20492;-77
2023/08/26 13:55:06;;;;;;;6.28;3.40;;;;;;;;;;4989560;28;20611;-75
2023/08/26 13:57:33;;;;;;;6.32;3.72;;;;;;;;;;4985561;28;20416;-75
2023/08/26 13:59:59;;;;;;;7.38;3.88;;;;;;;;;;4999583;28;20136;-75
2023/08/26 14:02:26;;;;;;;5.80;3.50;;;;;;;;;;5009078;28;20065;-77
2023/08/26 14:04:52;;;;;;;8.38;2.95;;;;;;;;;;5005719;28;20144;-76
2023/08/26 14:07:18;;;;;;;8.60;3.38;;;;;;;;;;5006913;28;20085;-75
2023/08/26 14:09:44;;;;;;;7.65;3.72;;;;;;;;;;5007107;28;20375;-77
2023/08/26 14:12:10;;;;;;;8.00;2.95;;;;;;;;;;5005503;28;20038;-75
2023/08/26 14:14:36;;;;;;;5.68;2.97;;;;;;;;;;5007254;28;20034;-75
2023/08/26 14:17:03;;;;;;;4.68;2.30;;;;;;;;;;5006684;28;20045;-76
2023/08/26 14:19:29;;;;;;;4.13;2.10;;;;;;;;;;5007188;28;20055;-75
2023/08/26 14:21:55;;;;;;;3.63;1.55;;;;;;;;;;5002429;28;20500;-74
2023/08/26 14:24:22;;;;;;;1.92;1.20;;;;;;;;;;4987597;28;20081;-75
2023/08/26 14:26:48;;;;;;;2.15;1.27;;;;;;;;;;5003001;28;20034;-75
2023/08/26 14:29:14;;;;;;;2.15;1.23;;;;;;;;;;5009449;28;20029;-75
2023/08/26 14:31:40;;;;;;;3.90;1.92;;;;;;;;;;5011710;28;20390;-75